Time;durP1;ratioP1;P1;durP2;ratioP2;P2;SDS_P1;SDS_P2;PMS_P1;PMS_P2;Temp;Humidity;BMP_temperature;BMP_pressure;BME280_temperature;BME280_humidity;BME280_pressure;Samples;Min_cycle;Max_cycle;Signal;HPM_P1;HPM_P2
2023/07/11 00:03:34;;;;;;;3.58;2.80;;;;;;;20.81;69.96;100285.09;10588574;28;20405;-73
2023/07/11 00:08:38;;;;;;;2.65;2.45;;;;;;;20.58;71.35;100297.38;10588102;28;20075;-73
2023/07/11 00:13:40;;;;;;;2.95;2.70;;;;;;;20.60;71.23;100292.78;10589480;28;20082;-73
2023/07/11 00:18:43;;;;;;;3.58;2.60;;;;;;;20.53;71.19;100287.97;10587597;28;20078;-73
2023/07/11 00:23:44;;;;;;;3.60;2.72;;;;;;;20.41;71.64;100289.66;10552383;28;20047;-72
2023/07/11 00:28:46;;;;;;;5.65;2.83;;;;;;;20.36;71.68;100287.31;10569067;28;20048;-72
2023/07/11 00:33:48;;;;;;;2.90;2.60;;;;;;;20.24;72.69;100290.81;10587558;28;20035;-72
2023/07/11 00:38:50;;;;;;;2.58;2.38;;;;;;;20.23;72.81;100290.88;10568215;28;20073;-72
2023/07/11 00:43:51;;;;;;;3.53;3.00;;;;;;;20.20;73.74;100285.78;10586472;28;20399;-73
2023/07/11 00:48:57;;;;;;;3.80;2.83;;;;;;;20.22;73.72;100281.16;10587172;28;20082;-73
2023/07/11 00:54:02;;;;;;;3.35;3.05;;;;;;;20.15;74.22;100284.28;10587611;28;20485;-73
2023/07/11 00:59:04;;;;;;;2.75;2.33;;;;;;;20.12;73.84;100281.78;10587035;28;20063;-74
2023/07/11 01:04:08;;;;;;;3.08;2.78;;;;;;;20.02;74.39;100283.38;10585941;28;20207;-73
2023/07/11 01:09:12;;;;;;;3.17;2.88;;;;;;;19.64;77.13;100270.75;10586883;28;20076;-73
2023/07/11 01:14:14;;;;;;;3.00;2.67;;;;;;;19.36;79.63;100266.34;10567089;28;20040;-73
2023/07/11 01:19:16;;;;;;;4.85;3.08;;;;;;;19.25;81.21;100270.66;10567869;28;20047;-73
2023/07/11 01:24:18;;;;;;;3.25;2.95;;;;;;;19.18;81.25;100272.00;10585347;28;20122;-72
2023/07/11 01:29:20;;;;;;;3.60;3.30;;;;;;;19.07;82.91;100268.19;10566529;28;20044;-73
2023/07/11 01:34:22;;;;;;;3.42;3.17;;;;;;;18.97;83.30;100261.75;10566673;28;20044;-73
2023/07/11 01:39:23;;;;;;;4.20;3.80;;;;;;;18.95;83.15;100255.69;10550062;28;20086;-73
2023/07/11 01:44:25;;;;;;;3.30;3.03;;;;;;;18.90;83.19;100255.06;10566713;28;20047;-72
2023/07/11 01:49:27;;;;;;;4.00;3.65;;;;;;;18.78;83.98;100250.53;10584594;28;20047;-73
2023/07/11 01:54:29;;;;;;;5.75;3.28;;;;;;;18.67;84.63;100251.16;10583507;28;20067;-73
2023/07/11 01:59:31;;;;;;;3.75;3.00;;;;;;;18.65;83.85;100247.75;10564677;28;20096;-73
2023/07/11 02:04:34;;;;;;;3.33;3.13;;;;;;;18.56;84.15;100249.16;10548712;28;20044;-73
2023/07/11 02:09:37;;;;;;;2.97;2.75;;;;;;;18.56;83.41;100250.97;10565062;28;20066;-72
2023/07/11 02:14:40;;;;;;;3.08;2.88;;;;;;;18.88;82.52;100252.53;10564545;28;20092;-74
2023/07/11 02:19:44;;;;;;;3.63;2.95;;;;;;;18.99;81.95;100258.97;10564618;28;20130;-72
2023/07/11 02:24:46;;;;;;;4.78;3.53;;;;;;;18.83;82.50;100254.63;10564304;28;20047;-73
2023/07/11 02:29:48;;;;;;;6.70;3.47;;;;;;;18.78;82.18;100254.06;10582301;28;20153;-73
2023/07/11 02:34:50;;;;;;;4.72;3.40;;;;;;;18.25;86.25;100267.94;10583167;28;20086;-72
2023/07/11 02:39:52;;;;;;;3.40;3.10;;;;;;;18.28;87.13;100275.72;10581918;28;20044;-73
2023/07/11 02:44:54;;;;;;;3.55;3.25;;;;;;;18.36;86.51;100261.03;10583764;28;20078;-73
2023/07/11 02:49:55;;;;;;;3.78;2.88;;;;;;;18.03;87.69;100269.22;10583339;28;20551;-73
2023/07/11 02:54:57;;;;;;;3.25;2.95;;;;;;;18.12;88.52;100263.34;10548151;28;20040;-73
2023/07/11 02:59:59;;;;;;;3.83;3.17;;;;;;;18.13;88.78;100258.88;10582808;28;20039;-73
2023/07/11 03:05:01;;;;;;;4.07;3.05;;;;;;;18.07;89.37;100262.78;10567012;28;20367;-74
2023/07/11 03:10:03;;;;;;;4.35;3.60;;;;;;;17.96;90.07;100265.19;10591527;28;20048;-73
2023/07/11 03:15:06;;;;;;;4.68;4.22;;;;;;;18.29;88.97;100275.66;10592134;28;20048;-73
2023/07/11 03:20:08;;;;;;;3.63;3.30;;;;;;;18.25;89.12;100268.81;10591224;28;20043;-73
2023/07/11 03:25:10;;;;;;;3.95;3.60;;;;;;;18.18;90.00;100278.09;10590774;28;20477;-73
2023/07/11 03:30:12;;;;;;;3.53;3.22;;;;;;;18.07;90.91;100270.75;10589106;28;20065;-73
2023/07/11 03:35:14;;;;;;;3.33;3.03;;;;;;;18.15;91.70;100279.16;10590486;28;20032;-73
2023/07/11 03:40:16;;;;;;;3.70;3.40;;;;;;;18.29;90.43;100277.47;10571460;28;20074;-74
2023/07/11 03:45:18;;;;;;;3.90;3.47;;;;;;;18.46;89.46;100285.28;10588898;28;20071;-74
2023/07/11 03:50:21;;;;;;;3.35;3.05;;;;;;;18.39;90.74;100278.63;10571039;28;20155;-73
2023/07/11 03:55:22;;;;;;;4.05;3.72;;;;;;;18.34;90.41;100286.88;10589343;28;20115;-73
2023/07/11 04:00:24;;;;;;;3.67;3.10;;;;;;;18.37;88.45;100291.16;10588161;28;20122;-74
2023/07/11 04:05:26;;;;;;;3.88;3.15;;;;;;;18.44;87.75;100289.00;10587909;28;20130;-73
2023/07/11 04:10:27;;;;;;;3.40;3.13;;;;;;;18.54;86.90;100284.81;10587785;28;20048;-74
2023/07/11 04:15:29;;;;;;;2.80;2.60;;;;;;;18.61;85.96;100289.69;10587060;28;20073;-73
2023/07/11 04:20:31;;;;;;;3.75;3.30;;;;;;;18.77;85.89;100286.09;10586588;28;20067;-73
2023/07/11 04:25:32;;;;;;;4.00;3.70;;;;;;;18.88;86.23;100288.97;10568373;28;20089;-74
2023/07/11 04:30:35;;;;;;;5.07;4.22;;;;;;;18.89;87.13;100286.19;10587160;28;20044;-73
2023/07/11 04:35:37;;;;;;;4.65;4.25;;;;;;;18.99;87.83;100288.28;10586602;28;20126;-73
2023/07/11 04:40:39;;;;;;;4.85;4.45;;;;;;;19.11;87.46;100285.69;10587561;28;20067;-73
2023/07/11 04:45:41;;;;;;;4.10;3.72;;;;;;;19.06;87.83;100293.13;10586767;28;20493;-73
2023/07/11 04:50:42;;;;;;;3.22;2.95;;;;;;;19.08;86.62;100291.25;10586744;28;20043;-73
2023/07/11 04:55:44;;;;;;;3.30;3.08;;;;;;;19.31;82.62;100283.59;10587616;28;20089;-73
2023/07/11 05:00:46;;;;;;;3.67;3.38;;;;;;;19.59;80.11;100280.84;10586570;28;20070;-73
2023/07/11 05:05:47;;;;;;;4.43;3.55;;;;;;;20.06;77.13;100292.91;10585474;28;20126;-73
2023/07/11 05:11:01;;;;;;;4.25;3.85;;;;;;;19.88;77.90;100286.13;10586313;28;20400;-73
2023/07/11 05:16:05;;;;;;;4.28;3.20;;;;;;;19.67;79.02;100274.19;10567133;28;20075;-73
2023/07/11 05:21:10;;;;;;;4.68;3.67;;;;;;;19.68;79.25;100273.25;10585648;28;20069;-73
2023/07/11 05:26:13;;;;;;;4.80;3.70;;;;;;;19.83;78.72;100277.53;10585545;28;20078;-74
2023/07/11 05:31:15;;;;;;;6.00;3.90;;;;;;;20.29;76.69;100277.13;10584101;28;20058;-73
2023/07/11 05:41:33;;;;;;;3.78;2.90;;;;;;;21.40;69.08;100271.97;10584615;28;20086;-75
2023/07/11 05:46:35;;;;;;;5.68;3.25;;;;;;;22.36;64.29;100263.03;10583509;28;20055;-75
2023/07/11 05:51:37;;;;;;;3.83;2.70;;;;;;;23.06;62.45;100257.50;10583273;28;20051;-74
2023/07/11 05:56:39;;;;;;;3.70;2.50;;;;;;;23.78;59.88;100257.00;10583739;28;20111;-74
2023/07/11 06:01:41;;;;;;;2.97;2.30;;;;;;;24.48;54.50;100252.03;10564852;28;20047;-75
2023/07/11 06:06:43;;;;;;;3.55;2.13;;;;;;;24.76;54.86;100251.34;10564393;28;20062;-74
2023/07/11 06:11:47;;;;;;;2.65;1.80;;;;;;;24.25;53.33;100246.75;10582888;28;20148;-74
2023/07/11 06:16:49;;;;;;;2.60;2.10;;;;;;;24.63;52.84;100242.63;10565139;28;20058;-74
2023/07/11 06:21:52;;;;;;;2.85;2.25;;;;;;;24.82;52.46;100245.41;10582830;28;20046;-74
2023/07/11 06:26:54;;;;;;;3.72;2.30;;;;;;;25.02;52.39;100245.50;10563933;28;20105;-74
2023/07/11 06:31:56;;;;;;;4.22;2.85;;;;;;;25.83;50.47;100246.28;10583254;28;20043;-74
2023/07/11 06:36:57;;;;;;;4.85;2.13;;;;;;;25.85;52.00;100246.97;10546483;28;20054;-74
2023/07/11 06:41:59;;;;;;;3.33;2.70;;;;;;;26.63;48.02;100235.09;10568393;28;20044;-74
2023/07/11 06:47:01;;;;;;;3.22;2.28;;;;;;;25.96;49.80;100246.84;10571589;28;20067;-74
2023/07/11 06:52:04;;;;;;;3.95;2.28;;;;;;;26.53;49.01;100239.69;10589877;28;20046;-74
2023/07/11 06:57:05;;;;;;;4.00;2.67;;;;;;;26.84;45.81;100237.59;10589972;28;20124;-74
2023/07/11 07:02:09;;;;;;;5.03;2.47;;;;;;;26.42;48.71;100239.81;10571339;28;20067;-73
2023/07/11 07:07:11;;;;;;;2.65;1.85;;;;;;;27.19;46.86;100237.88;10570746;28;20464;-73
2023/07/11 07:12:15;;;;;;;5.32;2.35;;;;;;;26.36;49.26;100235.00;10571251;28;20035;-73
2023/07/11 07:17:17;;;;;;;2.38;1.63;;;;;;;26.43;46.56;100228.06;10589802;28;20054;-73
2023/07/11 07:22:19;;;;;;;2.20;1.70;;;;;;;26.71;44.28;100228.97;10590552;28;20126;-73
2023/07/11 07:27:21;;;;;;;5.18;1.90;;;;;;;27.13;43.22;100215.88;10588624;28;20046;-73
2023/07/11 07:32:29;;;;;;;1.50;1.40;;;;;;;26.56;43.28;100211.56;10588059;28;20500;-73
2023/07/11 07:37:31;;;;;;;2.90;1.83;;;;;;;26.92;43.05;100204.47;10588342;28;20032;-73
2023/07/11 07:42:33;;;;;;;2.38;1.58;;;;;;;27.44;40.63;100201.19;10589783;28;20061;-74
2023/07/11 07:47:37;;;;;;;1.70;1.17;;;;;;;27.47;40.42;100201.75;10571369;28;20568;-73
2023/07/11 07:52:40;;;;;;;2.57;1.10;;;;;;;27.78;40.39;100186.03;10569826;28;20043;-74
2023/07/11 07:57:42;;;;;;;2.95;1.42;;;;;;;27.26;40.77;100187.69;10588542;28;20477;-73
2023/07/11 08:02:44;;;;;;;1.65;1.30;;;;;;;27.59;40.74;100194.28;10588909;28;20071;-74
2023/07/11 08:07:47;;;;;;;4.13;1.35;;;;;;;27.69;40.24;100192.31;10588805;28;20060;-75
2023/07/11 08:12:49;;;;;;;5.93;1.50;;;;;;;27.64;39.46;100186.56;10588240;28;20044;-75
2023/07/11 08:17:50;;;;;;;2.45;1.23;;;;;;;27.62;39.63;100181.28;10587482;28;20455;-74
2023/07/11 08:22:54;;;;;;;3.22;1.50;;;;;;;27.91;40.62;100174.81;10587601;28;20048;-74
2023/07/11 08:27:56;;;;;;;3.22;1.40;;;;;;;28.14;40.46;100167.88;10578902;28;20552;-73
2023/07/11 08:32:57;;;;;;;3.35;1.55;;;;;;;28.16;39.12;100170.44;10587259;28;20055;-73
2023/07/11 08:38:01;;;;;;;2.55;1.40;;;;;;;28.23;38.16;100162.53;10586394;28;20039;-73
2023/07/11 08:43:06;;;;;;;2.53;1.25;;;;;;;28.43;38.15;100155.09;10585931;28;20048;-73
2023/07/11 08:48:51;;;;;;;1.38;1.17;;;;;;;28.62;37.77;100152.13;10566430;28;20110;-73
2023/07/11 08:54:00;;;;;;;2.28;1.23;;;;;;;29.20;37.26;100147.78;10584408;28;20044;-73
2023/07/11 08:59:16;;;;;;;2.22;1.30;;;;;;;29.70;35.85;100138.72;10584826;28;20036;-73
2023/07/11 09:04:21;;;;;;;2.35;1.30;;;;;;;29.00;37.29;100130.97;10585659;28;20444;-74
2023/07/11 09:09:25;;;;;;;2.35;1.25;;;;;;;29.20;37.69;100128.84;10584556;28;20040;-74
2023/07/11 09:14:32;;;;;;;2.03;1.60;;;;;;;29.38;36.88;100124.97;10584521;28;20131;-73
2023/07/11 09:19:59;;;;;;;2.13;1.40;;;;;;;29.19;35.13;100113.63;10584422;28;20035;-73
2023/07/11 09:25:12;;;;;;;2.17;1.30;;;;;;;29.90;34.62;100108.38;10584611;28;20489;-72
2023/07/11 09:30:56;;;;;;;3.13;1.45;;;;;;;30.01;34.60;100100.91;10600473;27;20114;-73
2023/07/11 09:36:11;;;;;;;1.92;1.10;;;;;;;30.11;34.38;100097.00;10437562;28;20500;-73
2023/07/11 09:41:30;;;;;;;1.77;1.23;;;;;;;30.77;34.31;100094.94;10454284;28;20102;-73
2023/07/11 09:46:50;;;;;;;2.08;1.40;;;;;;;30.52;34.79;100086.03;10437210;28;20135;-72
2023/07/11 09:51:55;;;;;;;4.10;1.55;;;;;;;30.99;33.60;100084.28;10437508;28;20124;-73
2023/07/11 09:56:57;;;;;;;1.90;1.70;;;;;;;31.32;34.28;100074.91;10438570;28;20049;-72
2023/07/11 10:02:03;;;;;;;1.58;1.08;;;;;;;31.56;31.88;100068.41;10437175;28;20163;-73
2023/07/11 10:07:12;;;;;;;1.67;1.15;;;;;;;31.26;33.82;100064.75;10598886;27;20055;-73
2023/07/11 10:12:22;;;;;;;1.30;1.20;;;;;;;31.82;32.50;100053.56;10591597;27;20047;-73
2023/07/11 10:17:27;;;;;;;2.53;1.55;;;;;;;31.37;32.02;100048.03;10589456;27;20084;-72
2023/07/11 10:22:30;;;;;;;;;;;;;;;31.00;33.05;100039.84;10607171;28;20088;-73
2023/07/11 10:27:36;;;;;;;2.13;1.50;;;;;;;31.61;32.33;100029.81;10606269;28;19919;-75
2023/07/11 10:32:40;;;;;;;;;;;;;;;32.14;32.47;100027.91;10610015;28;20285;-75
2023/07/11 10:38:14;;;;;;;1.65;1.27;;;;;;;32.40;32.26;100008.38;10593840;28;20392;-76
2023/07/11 10:43:18;;;;;;;1.80;1.40;;;;;;;32.44;31.91;100006.13;10624081;28;20070;-75
2023/07/11 10:48:30;;;;;;;1.83;1.38;;;;;;;32.22;32.01;99997.03;10624176;28;20035;-76
2023/07/11 10:53:56;;;;;;;3.45;1.40;;;;;;;32.53;32.48;99994.94;10624807;28;20074;-76
2023/07/11 10:58:59;;;;;;;1.85;1.27;;;;;;;32.94;31.43;99980.75;10625422;28;20119;-76
2023/07/11 11:04:33;;;;;;;1.80;1.33;;;;;;;32.90;31.06;99974.81;10625094;28;20043;-76
2023/07/11 11:09:50;;;;;;;1.80;1.30;;;;;;;33.20;30.55;99965.66;10584221;28;20119;-76
2023/07/11 11:14:55;;;;;;;2.50;1.50;;;;;;;33.02;31.25;99958.81;10582738;28;20042;-76
2023/07/11 11:20:19;;;;;;;2.95;1.48;;;;;;;32.67;30.73;99941.50;10582771;28;20040;-76
2023/07/11 11:25:35;;;;;;;2.25;1.38;;;;;;;32.95;30.80;99944.31;10582323;28;20064;-75
2023/07/11 11:30:55;;;;;;;2.05;1.80;;;;;;;32.72;32.06;99936.31;10588889;28;20408;-76
2023/07/11 11:36:47;;;;;;;1.88;1.55;;;;;;;32.68;31.82;99926.03;10589608;28;20462;-76
2023/07/11 11:42:07;;;;;;;2.53;1.73;;;;;;;33.22;31.60;99923.56;10377264;28;20507;-75
2023/07/11 11:47:11;;;;;;;3.15;1.58;;;;;;;33.54;32.01;99918.56;10377159;28;20069;-74
2023/07/11 11:52:33;;;;;;;6.07;1.60;;;;;;;33.48;31.26;99912.06;10375643;28;20085;-73
2023/07/11 11:57:45;;;;;;;2.40;1.58;;;;;;;33.61;31.80;99898.50;10376880;28;20050;-75
2023/07/11 12:02:48;;;;;;;2.20;1.60;;;;;;;33.20;33.16;99892.97;10376344;28;20089;-74
2023/07/11 12:08:23;;;;;;;2.55;2.15;;;;;;;33.80;31.66;99890.63;10375450;28;20049;-74
2023/07/11 12:13:30;;;;;;;2.00;1.77;;;;;;;34.21;29.74;99878.81;10539426;28;20070;-73
2023/07/11 12:18:44;;;;;;;2.00;1.90;;;;;;;34.05;30.79;99871.88;10544338;28;20074;-75
2023/07/11 12:23:47;;;;;;;;;;;;;;;33.63;30.82;99869.16;10544901;28;20068;-74
2023/07/11 12:29:40;;;;;;;3.40;2.53;;;;;;;33.44;32.88;99850.81;10544293;28;20001;-74
2023/07/11 12:34:42;;;;;;;2.90;2.33;;;;;;;33.62;32.67;99848.38;10545401;28;20040;-75
2023/07/11 12:40:08;;;;;;;3.22;3.00;;;;;;;33.29;31.38;99831.00;10571488;28;20123;-75
2023/07/11 12:45:36;;;;;;;3.08;2.55;;;;;;;33.58;31.95;99829.91;10555379;28;20101;-73
2023/07/11 12:50:46;;;;;;;3.30;2.40;;;;;;;33.42;32.19;99819.31;10586461;28;20499;-74
2023/07/11 12:55:53;;;;;;;3.85;3.25;;;;;;;33.82;32.87;99813.03;10586301;28;20522;-74
2023/07/11 13:00:57;;;;;;;3.78;3.47;;;;;;;33.63;31.10;99808.34;10566752;28;20078;-73
2023/07/11 13:06:04;;;;;;;4.82;3.67;;;;;;;33.21;32.02;99798.50;10585257;28;20039;-73
2023/07/11 13:11:28;;;;;;;3.75;3.35;;;;;;;33.70;32.72;99795.59;10584471;28;20073;-74
2023/07/11 13:16:37;;;;;;;4.35;4.00;;;;;;;33.72;31.84;99790.75;10584794;28;20122;-74
2023/07/11 13:21:39;;;;;;;6.28;4.82;;;;;;;34.05;32.36;99788.16;10566949;28;20036;-73
2023/07/11 13:26:41;;;;;;;6.53;6.07;;;;;;;33.99;31.06;99774.50;10584827;28;20039;-73
2023/07/11 13:31:45;;;;;;;6.07;5.60;;;;;;;33.69;32.22;99769.38;10584317;28;20378;-73
2023/07/11 13:36:49;;;;;;;7.72;6.32;;;;;;;34.04;33.32;99763.81;10584187;28;20440;-73
2023/07/11 13:41:57;;;;;;;6.20;5.68;;;;;;;34.06;31.34;99761.72;10583670;28;20040;-73
2023/07/11 13:47:23;;;;;;;5.80;5.40;;;;;;;34.11;32.96;99745.56;10583178;28;20040;-73
2023/07/11 13:52:32;;;;;;;5.85;5.25;;;;;;;34.27;31.31;99744.34;10582955;28;20039;-73
2023/07/11 13:57:34;;;;;;;6.28;5.78;;;;;;;34.47;31.59;99749.78;10583852;28;20085;-73
2023/07/11 14:02:37;;;;;;;6.07;5.65;;;;;;;34.36;31.28;99737.59;10566041;28;20126;-74
2023/07/11 14:07:39;;;;;;;6.28;5.70;;;;;;;34.29;31.08;99720.38;10583615;28;20043;-73
2023/07/11 14:12:41;;;;;;;5.93;5.50;;;;;;;34.13;31.37;99721.63;10565769;28;20481;-73
2023/07/11 14:17:44;;;;;;;6.13;5.63;;;;;;;34.13;32.80;99716.19;10564217;28;20043;-73
2023/07/11 14:22:49;;;;;;;7.50;5.95;;;;;;;34.18;30.75;99710.09;10582975;28;20046;-75
2023/07/11 14:27:51;;;;;;;5.53;5.22;;;;;;;34.26;30.91;99694.34;10581912;28;20038;-72
2023/07/11 14:32:53;;;;;;;6.85;6.25;;;;;;;34.61;30.91;99692.25;10583399;28;20075;-74
2023/07/11 14:37:55;;;;;;;6.05;5.65;;;;;;;34.69;30.86;99685.72;10583740;28;20118;-75
2023/07/11 14:42:57;;;;;;;6.38;5.88;;;;;;;35.06;30.40;99686.03;10582723;28;20071;-74
2023/07/11 14:47:58;;;;;;;6.28;5.78;;;;;;;34.68;30.47;99675.88;10583053;28;20046;-73
2023/07/11 14:53:02;;;;;;;6.90;5.93;;;;;;;34.41;32.11;99668.75;10583452;28;20051;-73
2023/07/11 14:58:04;;;;;;;6.38;5.85;;;;;;;34.13;31.62;99667.94;10582308;28;20039;-73
2023/07/11 15:03:16;;;;;;;6.63;6.00;;;;;;;34.20;31.44;99669.81;10587793;28;20052;-73
2023/07/11 15:08:26;;;;;;;5.90;5.50;;;;;;;34.24;31.23;99660.16;10590704;28;20493;-73
2023/07/11 15:13:35;;;;;;;6.53;5.65;;;;;;;34.44;31.29;99658.22;10590143;28;20036;-73
2023/07/11 15:18:43;;;;;;;6.07;5.50;;;;;;;34.95;30.97;99648.47;10589829;28;20036;-73
2023/07/11 15:23:45;;;;;;;6.97;6.47;;;;;;;35.23;30.82;99650.88;10553759;28;20071;-72
2023/07/11 15:28:47;;;;;;;6.40;5.97;;;;;;;35.18;30.25;99639.78;10589511;28;20560;-74
2023/07/11 15:33:50;;;;;;;6.68;6.20;;;;;;;34.71;30.52;99639.09;10590368;28;20050;-72
2023/07/11 15:38:52;;;;;;;6.10;5.70;;;;;;;34.95;31.00;99629.34;10571996;28;20386;-73
2023/07/11 15:43:53;;;;;;;6.40;6.00;;;;;;;35.70;29.31;99624.94;10589085;28;20053;-72
2023/07/11 15:48:58;;;;;;;6.70;6.18;;;;;;;35.81;28.56;99615.19;10579823;28;20410;-72
2023/07/11 15:53:59;;;;;;;6.22;5.82;;;;;;;35.94;28.14;99608.75;10588470;28;20456;-72
2023/07/11 15:59:01;;;;;;;5.90;5.50;;;;;;;35.31;29.79;99595.97;10588461;28;20040;-73
2023/07/11 16:04:03;;;;;;;8.15;6.40;;;;;;;35.10;33.31;99594.41;10587928;28;20043;-74
2023/07/11 16:09:24;;;;;;;7.45;6.85;;;;;;;33.52;32.32;99580.88;10587767;28;20439;-72
2023/07/11 16:14:26;;;;;;;9.18;8.50;;;;;;;33.27;33.70;99577.03;10586349;28;20035;-72
2023/07/11 16:19:31;;;;;;;8.80;8.00;;;;;;;33.32;33.28;99569.91;10588642;28;20062;-72
2023/07/11 16:24:33;;;;;;;8.05;7.18;;;;;;;33.33;33.52;99560.69;10587680;28;20119;-72
2023/07/11 16:29:35;;;;;;;6.70;6.20;;;;;;;33.19;33.45;99553.56;10587176;28;20053;-72
2023/07/11 16:34:38;;;;;;;8.00;7.20;;;;;;;33.12;33.85;99563.63;10587076;28;20481;-73
2023/07/11 16:39:40;;;;;;;6.45;6.05;;;;;;;33.24;32.50;99566.56;10585882;28;20063;-73
2023/07/11 16:44:41;;;;;;;7.40;6.90;;;;;;;33.08;32.25;99555.00;10586113;28;20040;-74
2023/07/11 16:49:49;;;;;;;7.53;6.93;;;;;;;32.80;33.07;99549.66;10586504;28;20036;-74
2023/07/11 16:54:56;;;;;;;7.35;6.85;;;;;;;32.67;33.32;99538.72;10587595;28;20040;-73
2023/07/11 16:59:58;;;;;;;7.15;6.75;;;;;;;32.47;33.75;99537.81;10587910;28;20067;-74
2023/07/11 17:05:00;;;;;;;6.95;6.50;;;;;;;32.19;34.12;99535.16;10585747;28;20508;-73
2023/07/11 17:10:02;;;;;;;7.40;6.90;;;;;;;31.74;34.25;99526.44;10568016;28;20107;-74
2023/07/11 17:15:07;;;;;;;7.65;7.20;;;;;;;31.26;37.58;99520.81;10586581;28;20050;-72
2023/07/11 17:20:16;;;;;;;8.15;7.45;;;;;;;31.06;36.04;99523.31;10586685;28;20085;-73
2023/07/11 17:25:18;;;;;;;7.65;7.05;;;;;;;31.02;36.13;99516.59;10588015;28;20096;-72
2023/07/11 17:30:21;;;;;;;7.53;7.03;;;;;;;31.04;37.04;99509.97;10567109;28;20142;-72
2023/07/11 17:35:25;;;;;;;7.70;7.03;;;;;;;31.06;37.08;99512.47;10584771;28;20079;-72
2023/07/11 17:40:27;;;;;;;7.53;7.03;;;;;;;30.87;37.78;99508.53;10566365;28;20048;-71
2023/07/11 17:45:29;;;;;;;7.95;7.38;;;;;;;30.75;37.61;99504.63;10584843;28;20134;-73
2023/07/11 17:50:53;;;;;;;8.13;7.53;;;;;;;30.56;38.82;99498.75;10540370;22;20045;-73
2023/07/11 17:55:55;;;;;;;8.05;7.45;;;;;;;30.50;38.71;99502.22;10487402;28;20052;-72
2023/07/11 18:00:58;;;;;;;7.82;7.18;;;;;;;30.31;38.48;99497.41;10523758;28;20093;-73
2023/07/11 18:06:03;;;;;;;7.68;7.18;;;;;;;30.29;38.41;99486.75;10523422;28;20071;-72
2023/07/11 18:11:05;;;;;;;8.07;7.37;;;;;;;30.09;39.22;99483.72;10541747;28;20374;-72
2023/07/11 18:16:28;;;;;;;8.30;7.70;;;;;;;30.09;39.56;99486.44;10540794;28;20040;-72
2023/07/11 18:21:30;;;;;;;8.30;7.68;;;;;;;29.99;39.59;99487.78;10541612;28;20043;-72
2023/07/11 18:26:32;;;;;;;7.65;7.18;;;;;;;29.82;40.30;99482.53;10540182;28;20099;-72
2023/07/11 18:31:34;;;;;;;7.22;6.72;;;;;;;29.75;40.54;99475.31;10540315;28;20060;-72
2023/07/11 18:36:36;;;;;;;8.38;7.60;;;;;;;29.70;40.32;99466.91;10544553;28;20115;-72
2023/07/11 18:41:38;;;;;;;8.10;7.47;;;;;;;29.57;40.73;99479.25;10592755;28;20536;-72
2023/07/11 18:46:39;;;;;;;8.05;7.45;;;;;;;29.39;41.31;99474.13;10592161;28;20043;-73
2023/07/11 18:51:41;;;;;;;8.43;7.65;;;;;;;29.30;41.15;99475.22;10591944;28;20492;-72
2023/07/11 18:56:43;;;;;;;8.13;7.38;;;;;;;29.23;41.69;99470.75;10591714;28;20039;-73
2023/07/11 19:01:45;;;;;;;7.80;7.10;;;;;;;28.90;41.93;99469.09;10572980;28;20088;-73
2023/07/11 19:06:49;;;;;;;7.70;7.15;;;;;;;28.84;42.00;99460.88;10571968;28;20078;-73
2023/07/11 19:11:51;;;;;;;8.53;7.93;;;;;;;28.60;42.64;99462.72;10590480;28;20040;-73
2023/07/11 19:16:53;;;;;;;8.10;7.50;;;;;;;28.31;44.10;99462.50;10590361;28;20048;-73
2023/07/11 19:21:55;;;;;;;8.15;7.65;;;;;;;28.24;44.52;99454.25;10571801;28;20044;-73
2023/07/11 19:26:56;;;;;;;7.90;7.38;;;;;;;28.29;44.25;99453.72;10581629;28;20122;-73
2023/07/11 19:32:00;;;;;;;8.20;7.50;;;;;;;28.14;45.28;99446.38;10589157;28;20070;-72
2023/07/11 19:37:03;;;;;;;8.20;7.55;;;;;;;27.97;45.09;99435.81;10590463;28;20050;-72
2023/07/11 19:42:20;;;;;;;8.70;8.10;;;;;;;27.88;45.01;99437.69;10590943;28;20217;-73
2023/07/11 19:47:23;;;;;;;8.27;7.43;;;;;;;27.69;45.80;99429.97;10571179;28;20081;-72
2023/07/11 19:52:24;;;;;;;7.60;7.10;;;;;;;27.68;46.12;99429.13;10589661;28;20119;-72
2023/07/11 19:57:26;;;;;;;8.18;7.50;;;;;;;27.38;46.54;99412.66;10589894;28;20096;-72
2023/07/11 20:02:28;;;;;;;8.25;7.45;;;;;;;27.41;46.64;99398.00;10589248;28;20047;-72
2023/07/11 20:07:29;;;;;;;7.93;7.32;;;;;;;27.17;47.11;99393.47;10588431;28;20039;-72
2023/07/11 20:12:32;;;;;;;8.50;7.90;;;;;;;26.80;48.64;99389.44;10588756;28;20514;-71
2023/07/11 20:17:34;;;;;;;8.25;7.75;;;;;;;26.79;48.51;99370.75;10569538;28;20035;-72
2023/07/11 20:22:35;;;;;;;8.95;8.25;;;;;;;26.68;48.82;99369.19;10587406;28;20127;-72
2023/07/11 20:27:37;;;;;;;8.55;7.97;;;;;;;26.64;49.09;99357.91;10587284;28;20118;-73
2023/07/11 20:32:39;;;;;;;8.98;8.38;;;;;;;26.49;48.90;99343.44;10587315;28;20043;-72
2023/07/11 20:37:41;;;;;;;8.57;7.88;;;;;;;26.46;49.58;99337.53;10587000;28;20048;-72
2023/07/11 20:42:43;;;;;;;8.35;7.80;;;;;;;26.42;49.86;99342.38;10586686;28;20461;-71
2023/07/11 20:47:45;;;;;;;7.75;7.22;;;;;;;26.23;50.25;99348.06;10586347;28;20047;-71
2023/07/11 20:52:51;;;;;;;9.18;8.57;;;;;;;25.89;51.08;99362.47;10586996;28;20130;-73
2023/07/11 20:57:52;;;;;;;9.00;8.30;;;;;;;25.96;50.70;99382.34;10586036;28;20114;-72
2023/07/11 21:02:54;;;;;;;9.23;8.63;;;;;;;26.03;50.76;99367.25;10586379;28;20046;-71
2023/07/11 21:07:56;;;;;;;9.30;8.68;;;;;;;25.87;50.88;99349.16;10585729;28;20040;-72
2023/07/11 21:12:58;;;;;;;8.90;8.30;;;;;;;25.80;50.97;99336.50;10566892;28;20050;-72
2023/07/11 21:18:01;;;;;;;9.65;8.73;;;;;;;25.64;51.28;99350.75;10586401;28;20047;-72
2023/07/11 21:23:04;;;;;;;8.55;7.95;;;;;;;25.65;51.43;99333.56;10566668;28;20067;-72
2023/07/11 21:28:27;;;;;;;8.65;8.05;;;;;;;25.44;51.73;99325.06;10566563;28;20040;-72
2023/07/11 21:33:30;;;;;;;8.35;7.82;;;;;;;25.30;52.35;99339.97;10584916;28;20040;-72
2023/07/11 21:38:32;;;;;;;9.38;8.57;;;;;;;25.28;52.12;99350.91;10584905;28;20071;-73
2023/07/11 21:43:34;;;;;;;9.02;8.32;;;;;;;25.28;52.27;99350.03;10585873;28;20047;-73
2023/07/11 21:48:35;;;;;;;8.77;8.07;;;;;;;25.24;51.82;99341.47;10585836;28;20043;-73
2023/07/11 21:53:37;;;;;;;8.15;7.55;;;;;;;25.03;52.87;99333.72;10584889;28;20067;-73
2023/07/11 21:58:39;;;;;;;8.68;8.07;;;;;;;25.03;52.71;99349.88;10584852;28;20035;-73
2023/07/11 22:03:41;;;;;;;8.90;8.30;;;;;;;25.09;51.72;99354.63;10565948;28;20431;-73
2023/07/11 22:08:43;;;;;;;9.55;8.65;;;;;;;25.05;51.95;99353.22;10584306;28;20043;-73
2023/07/11 22:13:47;;;;;;;8.85;8.10;;;;;;;24.98;51.82;99345.97;10584222;28;20575;-72
2023/07/11 22:18:48;;;;;;;9.07;8.48;;;;;;;24.91;51.79;99333.13;10565297;28;20059;-73
2023/07/11 22:23:50;;;;;;;8.55;7.97;;;;;;;25.04;51.73;99323.81;10583738;28;20127;-73
2023/07/11 22:28:53;;;;;;;8.43;7.82;;;;;;;25.04;51.34;99326.50;10583490;28;20135;-73
2023/07/11 22:33:55;;;;;;;8.88;8.10;;;;;;;25.09;50.63;99319.66;10582679;28;20051;-73
2023/07/11 22:38:57;;;;;;;8.30;7.63;;;;;;;25.11;50.43;99304.25;10582966;28;20039;-72
2023/07/11 22:43:58;;;;;;;8.10;7.55;;;;;;;25.07;51.19;99302.84;10583958;28;20405;-73
2023/07/11 22:49:00;;;;;;;8.00;7.40;;;;;;;25.09;50.05;99298.16;10582662;28;20084;-73
2023/07/11 22:54:02;;;;;;;8.55;7.85;;;;;;;25.06;50.38;99282.34;10565548;28;20122;-73
2023/07/11 22:59:04;;;;;;;7.82;7.30;;;;;;;25.04;50.36;99281.63;10584445;28;20047;-73
2023/07/11 23:04:06;;;;;;;8.25;7.47;;;;;;;25.02;50.28;99277.44;10567439;28;20044;-73
2023/07/11 23:09:14;;;;;;;7.78;7.28;;;;;;;25.14;49.48;99268.94;10583012;28;20035;-74
2023/07/11 23:14:16;;;;;;;8.23;7.63;;;;;;;25.09;49.12;99256.97;10582446;28;20074;-73
2023/07/11 23:19:19;;;;;;;8.30;7.70;;;;;;;25.14;49.00;99251.97;10583101;28;20439;-72
2023/07/11 23:24:21;;;;;;;8.25;7.55;;;;;;;25.10;49.04;99256.84;10586989;28;20484;-74
2023/07/11 23:29:23;;;;;;;8.65;7.88;;;;;;;24.96;49.24;99252.00;10589619;28;20053;-73
2023/07/11 23:34:24;;;;;;;7.90;7.25;;;;;;;25.02;48.96;99264.00;10589236;28;20197;-72
2023/07/11 23:39:26;;;;;;;7.60;7.10;;;;;;;24.98;49.26;99265.31;10588220;28;20097;-72